createdAt,value
2019-05-29T00:00:59.807Z,61.40
2019-05-29T00:03:28.201Z,61.60
2019-05-29T00:05:56.616Z,61.70
2019-05-29T00:08:25.090Z,61.10
2019-05-29T00:10:53.407Z,61.30
2019-05-29T00:13:21.827Z,61.10
2019-05-29T00:15:50.216Z,61.10
2019-05-29T00:18:18.884Z,61.50
2019-05-29T00:20:47.248Z,61.10
2019-05-29T00:23:16.259Z,61.00
2019-05-29T00:25:44.937Z,60.00
2019-05-29T00:28:13.257Z,59.80
2019-05-29T00:30:41.677Z,60.00
2019-05-29T00:33:10.158Z,60.20
2019-05-29T00:35:38.461Z,60.80
2019-05-29T00:38:06.850Z,60.00
2019-05-29T00:40:35.205Z,59.90
2019-05-29T00:43:03.591Z,59.60
2019-05-29T00:45:31.975Z,59.90
2019-05-29T00:48:00.789Z,59.80
2019-05-29T00:50:29.174Z,60.10
2019-05-29T00:52:57.577Z,59.90
2019-05-29T00:55:25.957Z,59.60
2019-05-29T00:57:54.698Z,60.00
2019-05-29T01:00:23.109Z,59.50
2019-05-29T01:02:51.551Z,58.90
2019-05-29T01:05:20.200Z,59.40
2019-05-29T01:07:48.682Z,59.10
2019-05-29T01:10:18.797Z,58.70
2019-05-29T01:12:47.188Z,59.10
2019-05-29T01:15:15.532Z,59.00
2019-05-29T01:17:43.820Z,59.00
2019-05-29T01:20:12.125Z,58.70
2019-05-29T01:22:40.464Z,58.80
2019-05-29T01:25:08.795Z,58.70
2019-05-29T01:27:37.449Z,58.70
2019-05-29T01:30:06.799Z,59.00
2019-05-29T01:32:35.404Z,59.40
2019-05-29T01:35:07.322Z,59.40
2019-05-29T01:37:35.689Z,59.00
2019-05-29T01:40:18.754Z,59.70
2019-05-29T01:42:35.409Z,59.50
2019-05-29T01:45:08.041Z,59.60
2019-05-29T01:47:34.994Z,59.80
2019-05-29T01:50:03.413Z,60.50
2019-05-29T01:52:31.750Z,60.20
2019-05-29T01:55:00.166Z,60.70
2019-05-29T01:57:28.521Z,60.50
2019-05-29T01:59:56.833Z,60.30
2019-05-29T02:02:25.121Z,60.50
2019-05-29T02:04:53.425Z,60.30
2019-05-29T02:07:22.465Z,60.70
2019-05-29T02:09:50.941Z,60.50
2019-05-29T02:12:20.493Z,60.10
2019-05-29T02:14:49.201Z,60.10
2019-05-29T02:17:17.830Z,60.60
2019-05-29T02:19:46.229Z,60.80
2019-05-29T02:22:14.549Z,61.30
2019-05-29T02:24:42.850Z,61.00
2019-05-29T02:27:11.175Z,61.10
2019-05-29T02:29:39.500Z,61.70
2019-05-29T02:32:07.795Z,62.10
2019-05-29T02:34:36.092Z,61.20
2019-05-29T02:37:04.419Z,60.60
2019-05-29T02:39:32.735Z,60.50
2019-05-29T02:42:01.036Z,60.50
2019-05-29T02:44:29.720Z,61.20
2019-05-29T02:46:58.431Z,62.20
2019-05-29T02:49:28.174Z,62.40
2019-05-29T02:51:56.689Z,61.60
2019-05-29T02:54:27.045Z,62.10
2019-05-29T02:56:55.085Z,62.50
2019-05-29T02:59:25.498Z,62.50
2019-05-29T03:01:53.983Z,62.30
2019-05-29T03:04:23.838Z,62.10
2019-05-29T03:06:52.466Z,63.00
2019-05-29T03:09:22.604Z,62.20
2019-05-29T03:11:50.778Z,61.90
2019-05-29T03:14:19.090Z,61.40
2019-05-29T03:16:47.390Z,61.50
2019-05-29T03:19:15.704Z,62.10
2019-05-29T03:21:44.026Z,62.00
2019-05-29T03:24:12.332Z,62.50
2019-05-29T03:26:40.661Z,62.80
2019-05-29T03:29:09.034Z,63.40
2019-05-29T03:31:45.544Z,62.80
2019-05-29T03:34:07.369Z,63.40
2019-05-29T03:36:43.847Z,63.50
2019-05-29T03:39:06.809Z,63.20
2019-05-29T03:41:35.111Z,63.60
2019-05-29T03:44:03.811Z,63.90
2019-05-29T03:46:44.600Z,63.70
2019-05-29T03:49:08.743Z,63.90
2019-05-29T03:51:38.807Z,64.00
2019-05-29T03:54:07.054Z,63.90
2019-05-29T03:56:35.375Z,64.00
2019-05-29T03:59:03.891Z,64.10
2019-05-29T04:01:33.239Z,65.00
2019-05-29T04:04:02.197Z,64.30
2019-05-29T04:06:31.173Z,64.20
2019-05-29T04:08:59.668Z,64.10
2019-05-29T04:11:29.251Z,64.50
2019-05-29T04:13:57.817Z,64.70
2019-05-29T04:16:27.615Z,64.50
2019-05-29T04:18:56.223Z,64.50
2019-05-29T04:21:24.680Z,64.60
2019-05-29T04:23:52.989Z,64.70
2019-05-29T04:26:21.343Z,64.60
2019-05-29T04:28:49.698Z,64.80
2019-05-29T04:31:18.016Z,64.70
2019-05-29T04:33:46.389Z,65.00
2019-05-29T04:36:14.751Z,65.20
2019-05-29T04:38:43.119Z,65.00
2019-05-29T04:41:11.495Z,65.50
2019-05-29T04:43:40.063Z,65.10
2019-05-29T04:46:08.521Z,65.50
2019-05-29T04:48:38.315Z,63.60
2019-05-29T04:51:07.192Z,63.60
2019-05-29T04:53:35.907Z,63.20
2019-05-29T04:56:05.841Z,63.00
2019-05-29T04:58:34.831Z,62.50
2019-05-29T05:01:03.205Z,62.60
2019-05-29T05:03:31.534Z,62.30
2019-05-29T05:05:59.908Z,62.50
2019-05-29T05:08:29.213Z,63.60
2019-05-29T05:10:57.642Z,63.30
2019-05-29T05:13:26.006Z,63.30
2019-05-29T05:15:54.357Z,63.70
2019-05-29T05:21:59.176Z,63.80
2019-05-29T05:24:27.482Z,63.80
2019-05-29T05:26:58.713Z,64.80
2019-05-29T05:29:27.087Z,64.50
2019-05-29T05:31:55.476Z,65.10
2019-05-29T05:34:23.837Z,64.10
2019-05-29T05:36:52.248Z,64.10
2019-05-29T05:39:20.581Z,64.60
2019-05-29T05:41:48.931Z,63.90
2019-05-29T05:44:17.373Z,65.00
2019-05-29T05:46:45.677Z,64.30
2019-05-29T05:49:13.998Z,64.50
2019-05-29T05:51:44.512Z,64.70
2019-05-29T05:54:12.523Z,64.60
2019-05-29T05:56:41.800Z,65.20
2019-05-29T05:59:10.264Z,65.40
2019-05-29T06:01:39.928Z,65.20
2019-05-29T06:04:08.417Z,65.10
2019-05-29T06:06:38.019Z,65.30
2019-05-29T06:09:08.086Z,65.30
2019-05-29T06:11:36.461Z,66.00
2019-05-29T06:14:05.483Z,65.70
2019-05-29T06:16:34.476Z,65.60
2019-05-29T06:19:02.899Z,66.00
2019-05-29T06:21:32.482Z,66.10
2019-05-29T06:24:00.960Z,65.60
2019-05-29T06:26:29.362Z,66.30
2019-05-29T06:28:57.751Z,66.00
2019-05-29T06:31:27.315Z,66.10
2019-05-29T06:33:55.992Z,66.10
2019-05-29T06:36:24.369Z,66.20
2019-05-29T06:38:52.744Z,66.90
2019-05-29T06:41:21.210Z,66.40
2019-05-29T06:43:49.605Z,66.50
2019-05-29T06:46:17.926Z,66.30
2019-05-29T06:48:58.326Z,66.50
2019-05-29T06:51:16.339Z,66.40
2019-05-29T06:53:44.726Z,67.20
2019-05-29T06:56:13.101Z,67.00
2019-05-29T06:58:42.227Z,67.40
2019-05-29T07:01:11.120Z,66.90
2019-05-29T07:03:39.719Z,66.90
2019-05-29T07:06:09.918Z,67.60
2019-05-29T07:08:43.192Z,67.80
2019-05-29T07:11:08.629Z,69.20
2019-05-29T07:13:38.361Z,67.70
2019-05-29T07:16:07.023Z,68.10
2019-05-29T07:18:36.571Z,68.80
2019-05-29T07:21:05.056Z,68.70
2019-05-29T07:23:33.364Z,68.60
2019-05-29T07:26:01.685Z,68.30
2019-05-29T07:28:30.044Z,68.60
2019-05-29T07:31:02.619Z,68.60
2019-05-29T07:33:28.396Z,68.00
2019-05-29T07:35:56.794Z,67.90
2019-05-29T07:38:25.217Z,66.80
2019-05-29T07:40:53.560Z,68.00
2019-05-29T07:43:22.380Z,68.00
2019-05-29T07:45:51.120Z,68.40
2019-05-29T07:48:19.516Z,67.70
2019-05-29T07:50:48.432Z,68.60
2019-05-29T07:53:17.395Z,67.50
2019-05-29T07:55:46.747Z,67.60
2019-05-29T07:58:15.357Z,67.10
2019-05-29T08:01:06.862Z,67.20
2019-05-29T08:03:14.155Z,67.30
2019-05-29T08:05:46.172Z,66.10
2019-05-29T08:08:12.759Z,65.90
2019-05-29T08:10:41.794Z,64.10
2019-05-29T08:13:10.273Z,65.00
2019-05-29T08:15:54.150Z,65.80
2019-05-29T08:18:08.869Z,64.50
2019-05-29T08:20:37.189Z,66.00
2019-05-29T08:23:05.491Z,65.40
2019-05-29T08:25:33.820Z,65.30
2019-05-29T08:28:02.167Z,62.80
2019-05-29T08:30:30.470Z,62.70
2019-05-29T08:32:58.834Z,63.20
2019-05-29T08:35:27.208Z,62.10
2019-05-29T08:37:55.494Z,63.00
2019-05-29T08:40:23.798Z,63.10
2019-05-29T08:42:52.129Z,62.60
2019-05-29T08:45:20.428Z,62.30
2019-05-29T08:47:49.733Z,64.10
2019-05-29T08:50:19.295Z,63.20
2019-05-29T08:52:48.117Z,64.80
2019-05-29T08:55:16.537Z,64.40
2019-05-29T08:57:46.236Z,63.70
2019-05-29T09:00:17.488Z,65.00
2019-05-29T09:02:46.616Z,64.80
2019-05-29T09:05:15.393Z,65.10
2019-05-29T09:07:45.889Z,65.10
2019-05-29T09:10:13.850Z,64.20
2019-05-29T09:12:45.895Z,64.10
2019-05-29T09:15:12.258Z,63.00
2019-05-29T09:17:40.545Z,64.20
2019-05-29T09:20:27.184Z,64.40
2019-05-29T09:22:39.769Z,65.70
2019-05-29T09:25:08.067Z,63.90
2019-05-29T09:27:36.417Z,63.70
2019-05-29T09:30:05.969Z,65.20
2019-05-29T09:32:49.451Z,65.80
2019-05-29T09:35:04.774Z,64.20
2019-05-29T09:37:33.176Z,64.90
2019-05-29T09:40:01.575Z,64.30
2019-05-29T09:42:29.930Z,64.00
2019-05-29T09:44:58.253Z,64.00
2019-05-29T09:47:26.556Z,64.60
2019-05-29T09:49:54.951Z,63.20
2019-05-29T09:52:23.310Z,63.70
2019-05-29T09:54:52.991Z,63.60
2019-05-29T09:57:21.792Z,64.20
2019-05-29T09:59:50.882Z,66.30
2019-05-29T10:02:19.199Z,70.10
2019-05-29T10:04:47.562Z,69.50
2019-05-29T10:07:15.951Z,69.70
2019-05-29T10:09:44.290Z,68.60
2019-05-29T10:12:12.624Z,64.70
2019-05-29T10:14:40.986Z,63.80
2019-05-29T10:17:12.587Z,64.10
2019-05-29T10:19:59.122Z,64.00
2019-05-29T10:22:27.483Z,62.50
2019-05-29T10:24:56.878Z,62.90
2019-05-29T10:27:25.887Z,65.40
2019-05-29T10:29:54.345Z,65.80
2019-05-29T10:32:22.631Z,64.70
2019-05-29T10:34:50.959Z,63.90
2019-05-29T10:37:19.254Z,64.60
2019-05-29T10:39:48.916Z,62.10
2019-05-29T10:42:20.475Z,61.70
2019-05-29T10:44:49.107Z,62.80
2019-05-29T10:47:17.461Z,60.80
2019-05-29T10:49:45.787Z,62.10
2019-05-29T10:52:17.249Z,64.00
2019-05-29T10:54:44.154Z,62.50
2019-05-29T10:57:12.553Z,62.50
2019-05-29T10:59:40.846Z,64.80
2019-05-29T11:02:09.188Z,62.70
2019-05-29T11:04:37.601Z,60.40
2019-05-29T11:07:06.096Z,58.70
2019-05-29T11:09:43.846Z,58.70
2019-05-29T11:12:04.673Z,60.00
2019-05-29T11:14:33.002Z,60.70
2019-05-29T11:17:01.330Z,59.50
2019-05-29T11:19:30.100Z,59.20
2019-05-29T11:22:04.580Z,59.90
2019-05-29T11:24:28.474Z,60.00
2019-05-29T11:26:56.840Z,61.70
2019-05-29T11:29:25.213Z,60.90
2019-05-29T11:31:54.976Z,62.20
2019-05-29T11:34:23.521Z,66.50
2019-05-29T11:36:51.986Z,61.80
2019-05-29T11:39:20.315Z,63.80
2019-05-29T11:41:48.630Z,63.80
2019-05-29T11:44:16.932Z,63.50
2019-05-29T11:46:45.315Z,61.60
2019-05-29T11:49:13.639Z,60.70
2019-05-29T11:51:44.410Z,63.50
2019-05-29T11:54:11.973Z,62.30
2019-05-29T11:56:40.305Z,60.10
2019-05-29T11:59:08.611Z,61.60
2019-05-29T12:01:49.724Z,64.80
2019-05-29T12:04:23.136Z,60.20
2019-05-29T12:06:37.057Z,59.90
2019-05-29T12:09:08.364Z,58.70
2019-05-29T12:11:36.696Z,59.70
2019-05-29T12:14:05.244Z,59.40
2019-05-29T12:16:33.929Z,59.60
2019-05-29T12:19:02.292Z,60.10
2019-05-29T12:21:30.791Z,61.30
2019-05-29T12:26:35.950Z,60.20
2019-05-29T12:29:10.998Z,59.20
2019-05-29T12:31:34.361Z,60.30
2019-05-29T12:34:13.013Z,60.60
2019-05-29T12:36:32.770Z,61.60
2019-05-29T12:39:02.218Z,60.00
2019-05-29T12:41:31.140Z,58.70
2019-05-29T12:43:59.576Z,58.10
2019-05-29T12:46:27.975Z,58.60
2019-05-29T12:48:57.438Z,58.70
2019-05-29T12:51:25.969Z,60.50
2019-05-29T12:53:54.279Z,58.50
2019-05-29T12:56:22.606Z,58.80
2019-05-29T12:58:51.018Z,58.70
2019-05-29T13:01:19.481Z,59.50
2019-05-29T13:03:47.801Z,58.30
2019-05-29T13:06:16.145Z,58.00
2019-05-29T13:08:44.485Z,58.40
2019-05-29T13:11:12.821Z,59.70
2019-05-29T13:13:41.183Z,60.00
2019-05-29T13:16:09.559Z,60.40
2019-05-29T13:18:37.944Z,57.80
2019-05-29T13:21:06.317Z,59.40
2019-05-29T13:23:44.814Z,59.40
2019-05-29T13:26:05.691Z,58.10
2019-05-29T13:32:06.991Z,59.60
2019-05-29T13:34:35.229Z,58.40
2019-05-29T13:37:07.083Z,59.10
2019-05-29T13:39:33.702Z,60.20
2019-05-29T13:42:08.593Z,59.90
2019-05-29T13:44:32.091Z,57.60
2019-05-29T13:47:01.843Z,55.90
2019-05-29T13:49:30.305Z,55.90
2019-05-29T13:51:59.154Z,55.00
2019-05-29T13:54:28.192Z,55.40
2019-05-29T13:56:58.990Z,55.20
2019-05-29T13:59:26.812Z,56.90
2019-05-29T14:01:55.213Z,56.10
2019-05-29T14:04:23.618Z,56.60
2019-05-29T14:06:53.021Z,54.40
2019-05-29T14:09:22.350Z,55.10
2019-05-29T14:11:54.243Z,56.00
2019-05-29T14:14:22.634Z,57.20
2019-05-29T14:16:51.138Z,57.40
2019-05-29T14:19:19.500Z,55.30
2019-05-29T14:21:48.374Z,55.70
2019-05-29T14:24:28.795Z,56.20
2019-05-29T14:26:46.874Z,56.70
2019-05-29T14:29:15.380Z,56.20
2019-05-29T14:31:43.770Z,55.30
2019-05-29T14:34:13.294Z,56.60
2019-05-29T14:36:41.815Z,54.80
2019-05-29T14:39:10.210Z,55.10
2019-05-29T14:41:38.948Z,54.30
2019-05-29T14:44:07.920Z,54.70
2019-05-29T14:46:36.355Z,55.60
2019-05-29T14:49:04.672Z,54.30
2019-05-29T14:51:33.011Z,54.30
2019-05-29T14:54:02.628Z,54.40
2019-05-29T14:56:31.322Z,53.50
2019-05-29T14:58:59.743Z,53.20
2019-05-29T15:01:28.138Z,53.40
2019-05-29T15:03:56.558Z,52.80
2019-05-29T15:06:24.879Z,52.90
2019-05-29T15:08:53.217Z,53.10
2019-05-29T15:11:21.521Z,52.20
2019-05-29T15:13:49.820Z,51.20
2019-05-29T15:16:18.287Z,50.40
2019-05-29T15:18:46.686Z,52.50
2019-05-29T15:21:15.351Z,51.60
2019-05-29T15:23:43.973Z,53.00
2019-05-29T15:26:12.360Z,51.70
2019-05-29T15:28:40.698Z,50.90
2019-05-29T15:31:10.335Z,50.80
2019-05-29T15:33:38.980Z,51.40
2019-05-29T15:36:08.561Z,51.40
2019-05-29T15:38:37.099Z,51.30
2019-05-29T15:41:06.539Z,52.10
2019-05-29T15:43:34.987Z,50.60
2019-05-29T15:46:03.509Z,48.40
2019-05-29T15:48:32.125Z,47.80
2019-05-29T15:51:00.476Z,48.20
2019-05-29T15:53:28.882Z,49.50
2019-05-29T15:55:57.245Z,49.00
2019-05-29T15:58:25.554Z,47.90
2019-05-29T16:00:53.896Z,46.60
2019-05-29T16:03:22.256Z,46.70
2019-05-29T16:05:50.983Z,47.90
2019-05-29T16:08:19.419Z,48.50
2019-05-29T16:14:21.935Z,46.50
2019-05-29T16:16:50.283Z,48.70
2019-05-29T16:19:18.637Z,46.80
2019-05-29T16:21:47.018Z,46.40
2019-05-29T16:24:16.721Z,48.40
2019-05-29T16:26:46.351Z,47.90
2019-05-29T16:29:16.399Z,48.10
2019-05-29T16:31:55.837Z,47.40
2019-05-29T16:34:24.282Z,46.00
2019-05-29T16:36:52.664Z,46.60
2019-05-29T16:39:22.558Z,46.80
2019-05-29T16:41:51.192Z,45.80
2019-05-29T16:44:24.351Z,45.60
2019-05-29T16:46:49.730Z,46.10
2019-05-29T16:49:18.716Z,46.50
2019-05-29T16:51:47.155Z,48.30
2019-05-29T16:54:17.063Z,47.50
2019-05-29T16:56:46.375Z,47.10
2019-05-29T16:59:14.944Z,47.20
2019-05-29T17:01:43.384Z,47.50
2019-05-29T17:04:17.644Z,47.20
2019-05-29T17:06:46.111Z,47.50
2019-05-29T17:09:14.589Z,48.20
2019-05-29T17:11:43.094Z,47.20
2019-05-29T17:14:11.648Z,47.30
2019-05-29T17:16:48.494Z,47.10
2019-05-29T17:19:16.828Z,48.20
2019-05-29T17:21:45.147Z,47.80
2019-05-29T17:24:14.687Z,47.10
2019-05-29T17:26:43.446Z,47.00
2019-05-29T17:29:11.872Z,47.10
2019-05-29T17:31:40.595Z,47.60
2019-05-29T17:34:09.073Z,48.10
2019-05-29T17:36:37.488Z,47.20
2019-05-29T17:39:15.159Z,47.30
2019-05-29T17:41:42.749Z,46.50
2019-05-29T17:44:11.209Z,46.50
2019-05-29T17:46:39.600Z,46.70
2019-05-29T17:49:07.928Z,49.40
2019-05-29T17:51:36.685Z,47.20
2019-05-29T17:54:05.120Z,48.20
2019-05-29T17:56:36.568Z,47.80
2019-05-29T17:59:07.328Z,47.80
2019-05-29T18:01:35.723Z,47.90
2019-05-29T18:04:04.067Z,47.40
2019-05-29T18:06:32.420Z,47.60
2019-05-29T18:09:00.796Z,47.60
2019-05-29T18:11:29.178Z,47.80
2019-05-29T18:13:57.526Z,47.80
2019-05-29T18:16:25.892Z,47.80
2019-05-29T18:18:54.236Z,48.30
2019-05-29T18:21:23.604Z,48.30
2019-05-29T18:23:53.631Z,48.20
2019-05-29T18:26:22.499Z,48.40
2019-05-29T18:28:50.928Z,48.30
2019-05-29T18:31:20.349Z,49.00
2019-05-29T18:33:48.812Z,48.60
2019-05-29T18:36:17.259Z,50.60
2019-05-29T18:38:45.687Z,49.40
2019-05-29T18:41:14.051Z,50.10
2019-05-29T18:43:42.395Z,50.50
2019-05-29T18:46:10.797Z,50.00
2019-05-29T18:48:39.171Z,50.20
2019-05-29T18:51:36.063Z,50.40
2019-05-29T18:57:45.771Z,51.60
2019-05-29T19:00:27.495Z,51.80
2019-05-29T19:09:46.625Z,51.50
2019-05-29T19:12:14.980Z,52.40
2019-05-29T19:14:43.281Z,52.10
2019-05-29T19:17:16.309Z,52.30
2019-05-29T19:19:44.695Z,52.80
2019-05-29T19:22:13.303Z,52.70
2019-05-29T19:24:47.034Z,52.60
2019-05-29T19:27:30.166Z,53.60
2019-05-29T19:29:47.901Z,52.90
2019-05-29T19:32:16.304Z,52.60
2019-05-29T19:34:44.651Z,52.80
2019-05-29T19:37:13.019Z,52.70
2019-05-29T19:39:41.659Z,52.80
2019-05-29T19:42:10.057Z,52.90
2019-05-29T19:44:38.429Z,53.00
2019-05-29T19:47:06.853Z,53.00
2019-05-29T19:49:35.352Z,53.30
2019-05-29T19:52:05.565Z,53.50
2019-05-29T19:54:33.971Z,53.70
2019-05-29T19:57:52.410Z,53.50
2019-05-29T20:00:08.622Z,53.50
2019-05-29T20:02:36.994Z,54.10
2019-05-29T20:05:15.244Z,53.90
2019-05-29T20:07:44.548Z,54.00
2019-05-29T20:10:12.905Z,54.00
2019-05-29T20:15:20.742Z,54.30
2019-05-29T20:17:49.448Z,54.30
2019-05-29T20:20:18.351Z,54.50
2019-05-29T20:22:47.226Z,54.70
2019-05-29T20:25:16.968Z,54.90
2019-05-29T20:27:45.714Z,54.70
2019-05-29T20:30:18.036Z,55.00
2019-05-29T20:32:47.202Z,55.00
2019-05-29T20:35:16.460Z,55.20
2019-05-29T20:37:48.673Z,55.20
2019-05-29T20:40:17.178Z,55.50
2019-05-29T20:42:45.548Z,55.80
2019-05-29T20:45:14.824Z,55.60
2019-05-29T20:47:43.188Z,55.70
2019-05-29T20:50:11.557Z,55.70
2019-05-29T20:52:39.924Z,56.00
2019-05-29T20:55:08.929Z,56.20
2019-05-29T20:57:38.022Z,56.10
2019-05-29T21:00:13.008Z,56.20
2019-05-29T21:02:42.493Z,56.60
2019-05-29T21:05:11.155Z,56.60
2019-05-29T21:07:40.841Z,57.00
2019-05-29T21:10:09.593Z,57.20
2019-05-29T21:12:41.907Z,57.20
2019-05-29T21:15:08.021Z,57.30
2019-05-29T21:17:37.755Z,57.60
2019-05-29T21:20:07.707Z,57.70
2019-05-29T21:22:36.515Z,58.00
2019-05-29T21:25:12.352Z,57.90
2019-05-29T21:27:41.942Z,58.20
2019-05-29T21:30:08.549Z,58.40
2019-05-29T21:32:37.840Z,59.10
2019-05-29T21:35:09.191Z,58.30
2019-05-29T21:37:38.240Z,58.50
2019-05-29T21:40:06.962Z,58.30
2019-05-29T21:42:36.538Z,58.30
2019-05-29T21:45:08.514Z,58.40
2019-05-29T21:47:37.177Z,58.60
2019-05-29T21:50:06.707Z,58.50
2019-05-29T21:52:35.137Z,58.40
2019-05-29T21:55:04.728Z,58.50
2019-05-29T21:57:33.037Z,58.70
2019-05-29T22:00:01.399Z,58.80
2019-05-29T22:02:29.714Z,58.80
2019-05-29T22:04:58.037Z,58.70
2019-05-29T22:07:26.375Z,58.30
2019-05-29T22:09:54.700Z,58.30
2019-05-29T22:12:23.027Z,58.40
2019-05-29T22:14:52.887Z,58.20
2019-05-29T22:17:21.601Z,58.30
2019-05-29T22:19:50.748Z,58.40
2019-05-29T22:22:19.243Z,58.50
2019-05-29T22:24:47.543Z,58.50
2019-05-29T22:27:15.870Z,58.60
2019-05-29T22:29:44.247Z,58.60
2019-05-29T22:32:12.599Z,58.70
2019-05-29T22:34:40.953Z,58.70
2019-05-29T22:37:09.627Z,58.70
2019-05-29T22:39:38.037Z,58.60
2019-05-29T22:42:06.357Z,58.70
2019-05-29T22:44:34.756Z,58.80
2019-05-29T22:47:03.183Z,58.90
2019-05-29T22:49:31.981Z,58.90
2019-05-29T22:52:00.418Z,59.00
2019-05-29T22:54:28.783Z,59.10
2019-05-29T22:56:57.979Z,59.30
2019-05-29T22:59:31.881Z,59.10
2019-05-29T23:01:56.476Z,59.30
2019-05-29T23:04:24.857Z,59.40
2019-05-29T23:06:54.205Z,59.40
2019-05-29T23:09:22.824Z,59.40
2019-05-29T23:11:52.174Z,59.40
2019-05-29T23:14:20.906Z,59.60
2019-05-29T23:16:49.229Z,59.80
2019-05-29T23:19:17.618Z,59.90
2019-05-29T23:21:46.235Z,60.20
2019-05-29T23:24:14.700Z,60.00
2019-05-29T23:26:43.089Z,60.30
2019-05-29T23:29:11.854Z,60.20
2019-05-29T23:31:40.336Z,60.30
2019-05-29T23:34:08.669Z,60.60
2019-05-29T23:36:37.123Z,60.40
2019-05-29T23:39:06.483Z,60.50
2019-05-29T23:41:34.993Z,60.60
2019-05-29T23:44:04.340Z,60.80
2019-05-29T23:46:32.679Z,60.90
2019-05-29T23:49:01.866Z,60.80
2019-05-29T23:51:30.334Z,60.90
2019-05-29T23:53:59.745Z,61.10
2019-05-29T23:56:28.226Z,61.20
2019-05-29T23:58:57.574Z,61.50
